Vienna, VA

1:17 PM EDT on August 30, 2015 (GMT -0400)
Stonewall Manor | | Change Station
CLOSE
Current Station
Personal Weather Station
Location: Vienna, VA
Elevation: 430 ft
Nearby Weather Stations

Elev 430 ft 38.89 °N, 77.23 °W | Updated 12 minutes ago

Partly Cloudy
Partly Cloudy
82.2 °F
Feels Like 86 °F
N
2.2
Wind Variable Wind from SW

Today
High -- | Low -- °F
--% Chance of Precip.
Yesterday
High -- | Low -- °F
Precip. -- in
6:35 AM 7:42 PM
Full, 99% visible
Pressure 30.13 in
Visibility 10.0 miles
Clouds Mostly Cloudy 20000 ft
Overcast 25000 ft
Heat Index 86 °F
Dew Point 70 °F
Humidity 67%
Rainfall 0.00 in
Snow Depth Not available.
UV 3 out of 12
Pollen 10.30 out of 12
Air Quality Not available.
Flu Activity Not available.
METAR KDCA 301652Z 17006KT 10SM BKN200 OVC250 26/19 A3013 RMK AO2 SLP203 T02610194
Pressure 30.13 in
Visibility 10.0 miles
Clouds Mostly Cloudy 20000 ft
Overcast 25000 ft
Heat Index 86 °F
Dew Point 70 °F
Humidity 67%
Rainfall 0.00 in
Snow Depth Not available.
UV 3 out of 12
Pollen 10.30 out of 12
Air Quality Not available.
Flu Activity Not available.
METAR KDCA 301652Z 17006KT 10SM BKN200 OVC250 26/19 A3013 RMK AO2 SLP203 T02610194

10-Day Weather Forecast

×

Almanac

Astronomy

Aug. 30, 2015 Rise Set
Actual Time
Civil Twilight
Nautical Twilight
Astronomical Twilight
Moon
Length of Visible Light
Length of Day
Tomorrow will be .
, % of the Moon is Illuminated

Today's Extremes

State Highs State Lows

Community

WunderPhotos

Upload Photos

1,851,014 photos uploaded!

WunderBlogs® & News

Nearby

Air Quality

  Air Quality AQ Index Pollutant
Not available.

Snow Depth

Station Depth Elevation

Earthquake Activity

City Distance Mag. Time & Date
Minimum magnitude displayed is 2.5.

Coastal Water Temperatures

Place Temperature

Stations

Nearby Weather Stations

Station Location Temp. Windchill Dew Point Humidity Wind Precip. Elev Updated Type